Weather at Simón Bolívar International Airport

Public forecast

Using degrees Celsius for public forecast. Weather courtesy of forecast.io.

Current aviation weather report (METAR) for Simón Bolívar International Airport

2024/06/22 06:00 (retrieved 23 minutes ago)

SVMI 220600Z 00000KT 9999 SCT016 25/24 Q1014

Aviation forecast (TAF) for Simón Bolívar International Airport

Forecast is more than 12 hours old.

2024/06/20 18:36 (retrieved 1 day ago)

TAF SVMI 201600Z 2018/2118 09007KT 9999 SCT016 TX33/2018Z TN23/2107Z TEMPO 2019/2023 07010KT 9999 SCT070 BKN016